CCA935 ZSPD-EDDF
Flight info
| Callsign | CCA935 |
|---|---|
| Flight time | N/A |
| Altitude | 36100 |
| Route | PIK81D PIKAS G330 PIMOL A593 DALIM W157 BEKDO/K0900S1130 W157 VYK G212 SOTMU/K0900S1100 B339 POLHO Y345 VIZOT/K0895S1160 Y345 UDA R372 AMUTA/K0913F380 R372 ADONI B800 KUMOD N869 UNISO L870 RANVA/N0480F380 L870 RESMO DCT TODNA DCT DEREX DCT KOLJA DCT GORPI Z80 TILAV L87 KETAP DCT PENEK DCT POVEL DCT RIMET/N0472F310 T157 KOKEB/N0424F230 T157 KERAX KERAX5A |
| Aircraft | A359/H-SDE2E3GHIJ1J3J4J5LM1ORWXY/LB1D1 |
Departure
| Time | 2026-05-04 03:42 |
|---|---|
| Airport | Shanghai Pudong International Airport (ZSPD) |
Arrival
| Time | N/A |
|---|---|
| Airport | Frankfurt Main Airport (EDDF) |
| Time | Latitude | Longitude | Altitude | Speed | Heading |
|---|---|---|---|---|---|
| 2026-05-04 02:47 | 31.15347 | 121.80740 | 26 ft | 0 kts | 252° |
| 2026-05-04 03:20 | 31.15350 | 121.80750 | 26 ft | 2 kts | 252° |
| 2026-05-04 03:20 | 31.15355 | 121.80767 | 26 ft | 2 kts | 252° |
| 2026-05-04 03:20 | 31.15359 | 121.80784 | 26 ft | 2 kts | 252° |
| 2026-05-04 03:21 | 31.15364 | 121.80800 | 26 ft | 2 kts | 252° |
| 2026-05-04 03:21 | 31.15368 | 121.80817 | 26 ft | 2 kts | 241° |
| 2026-05-04 03:21 | 31.15379 | 121.80829 | 26 ft | 2 kts | 202° |
| 2026-05-04 03:21 | 31.15393 | 121.80833 | 26 ft | 2 kts | 171° |
| 2026-05-04 03:22 | 31.15407 | 121.80827 | 26 ft | 2 kts | 157° |
| 2026-05-04 03:22 | 31.15421 | 121.80821 | 26 ft | 2 kts | 161° |
| 2026-05-04 03:22 | 31.15435 | 121.80815 | 26 ft | 2 kts | 163° |
| 2026-05-04 03:22 | 31.15443 | 121.80813 | 26 ft | 0 kts | 162° |
| 2026-05-04 03:26 | 31.15439 | 121.80814 | 26 ft | 1 kts | 162° |
| 2026-05-04 03:26 | 31.15428 | 121.80818 | 26 ft | 2 kts | 162° |
| 2026-05-04 03:27 | 31.15416 | 121.80823 | 26 ft | 1 kts | 162° |
| 2026-05-04 03:27 | 31.15397 | 121.80830 | 26 ft | 4 kts | 162° |
| 2026-05-04 03:27 | 31.15359 | 121.80852 | 26 ft | 7 kts | 140° |
| 2026-05-04 03:27 | 31.15347 | 121.80916 | 26 ft | 9 kts | 78° |
| 2026-05-04 03:28 | 31.15367 | 121.80997 | 26 ft | 10 kts | 79° |
| 2026-05-04 03:28 | 31.15326 | 121.81059 | 26 ft | 11 kts | 153° |
| 2026-05-04 03:28 | 31.15251 | 121.81091 | 26 ft | 11 kts | 162° |
| 2026-05-04 03:28 | 31.15169 | 121.81123 | 26 ft | 12 kts | 162° |
| 2026-05-04 03:29 | 31.15081 | 121.81157 | 26 ft | 13 kts | 161° |
| 2026-05-04 03:29 | 31.14987 | 121.81192 | 26 ft | 14 kts | 162° |
| 2026-05-04 03:29 | 31.14886 | 121.81229 | 26 ft | 15 kts | 162° |
| 2026-05-04 03:29 | 31.14780 | 121.81270 | 26 ft | 16 kts | 162° |
| 2026-05-04 03:30 | 31.14670 | 121.81311 | 26 ft | 17 kts | 162° |
| 2026-05-04 03:30 | 31.14559 | 121.81353 | 26 ft | 10 kts | 162° |
| 2026-05-04 03:30 | 31.14500 | 121.81351 | 26 ft | 8 kts | 215° |
| 2026-05-04 03:30 | 31.14472 | 121.81284 | 26 ft | 9 kts | 252° |
| 2026-05-04 03:31 | 31.14449 | 121.81205 | 26 ft | 10 kts | 252° |
| 2026-05-04 03:31 | 31.14426 | 121.81119 | 26 ft | 11 kts | 252° |
| 2026-05-04 03:31 | 31.14399 | 121.81026 | 26 ft | 12 kts | 252° |
| 2026-05-04 03:31 | 31.14372 | 121.80926 | 26 ft | 13 kts | 252° |
| 2026-05-04 03:32 | 31.14342 | 121.80821 | 26 ft | 14 kts | 252° |
| 2026-05-04 03:32 | 31.14310 | 121.80708 | 26 ft | 15 kts | 252° |
| 2026-05-04 03:32 | 31.14277 | 121.80589 | 26 ft | 15 kts | 252° |
| 2026-05-04 03:32 | 31.14242 | 121.80463 | 26 ft | 16 kts | 252° |
| 2026-05-04 03:33 | 31.14206 | 121.80332 | 26 ft | 17 kts | 252° |
| 2026-05-04 03:33 | 31.14168 | 121.80196 | 26 ft | 18 kts | 252° |
| 2026-05-04 03:33 | 31.14128 | 121.80053 | 26 ft | 18 kts | 252° |
| 2026-05-04 03:33 | 31.14086 | 121.79905 | 26 ft | 19 kts | 252° |
| 2026-05-04 03:34 | 31.14047 | 121.79752 | 26 ft | 20 kts | 259° |
| 2026-05-04 03:34 | 31.14032 | 121.79658 | 26 ft | 9 kts | 267° |
| 2026-05-04 03:34 | 31.14070 | 121.79603 | 26 ft | 10 kts | 335° |
| 2026-05-04 03:34 | 31.14138 | 121.79572 | 26 ft | 10 kts | 340° |
| 2026-05-04 03:35 | 31.14214 | 121.79542 | 26 ft | 11 kts | 342° |
| 2026-05-04 03:35 | 31.14295 | 121.79511 | 26 ft | 12 kts | 342° |
| 2026-05-04 03:35 | 31.14382 | 121.79479 | 26 ft | 13 kts | 342° |
| 2026-05-04 03:35 | 31.14477 | 121.79443 | 26 ft | 14 kts | 342° |
| 2026-05-04 03:36 | 31.14576 | 121.79404 | 26 ft | 15 kts | 342° |
| 2026-05-04 03:36 | 31.14681 | 121.79365 | 26 ft | 16 kts | 342° |
| 2026-05-04 03:36 | 31.14792 | 121.79324 | 26 ft | 17 kts | 342° |
| 2026-05-04 03:36 | 31.14908 | 121.79279 | 26 ft | 18 kts | 342° |
| 2026-05-04 03:37 | 31.15030 | 121.79234 | 26 ft | 18 kts | 342° |
| 2026-05-04 03:37 | 31.15158 | 121.79185 | 26 ft | 19 kts | 342° |
| 2026-05-04 03:37 | 31.15290 | 121.79135 | 26 ft | 20 kts | 342° |
| 2026-05-04 03:37 | 31.15428 | 121.79083 | 26 ft | 21 kts | 342° |
| 2026-05-04 03:38 | 31.15570 | 121.79029 | 26 ft | 21 kts | 342° |
| 2026-05-04 03:38 | 31.15718 | 121.78973 | 26 ft | 22 kts | 342° |
| 2026-05-04 03:38 | 31.15871 | 121.78915 | 26 ft | 23 kts | 341° |
| 2026-05-04 03:38 | 31.16028 | 121.78856 | 26 ft | 23 kts | 342° |
| 2026-05-04 03:39 | 31.16132 | 121.78808 | 26 ft | 9 kts | 313° |
| 2026-05-04 03:39 | 31.16141 | 121.78732 | 26 ft | 10 kts | 261° |
| 2026-05-04 03:39 | 31.16118 | 121.78651 | 26 ft | 9 kts | 241° |
| 2026-05-04 03:39 | 31.16063 | 121.78625 | 26 ft | 9 kts | 175° |
| 2026-05-04 03:40 | 31.16009 | 121.78643 | 26 ft | 0 kts | 161° |
| 2026-05-04 03:41 | 31.15979 | 121.78655 | 26 ft | 21 kts | 161° |
| 2026-05-04 03:41 | 31.15578 | 121.78805 | 26 ft | 96 kts | 162° |
| 2026-05-04 03:41 | 31.14722 | 121.79129 | 27 ft | 158 kts | 162° |
| 2026-05-04 03:41 | 31.13530 | 121.79572 | 217 ft | 191 kts | 163° |
| 2026-05-04 03:42 | 31.12310 | 121.80029 | 1067 ft | 184 kts | 165° |
| 2026-05-04 03:42 | 31.11101 | 121.80443 | 1852 ft | 181 kts | 166° |
| 2026-05-04 03:42 | 31.09907 | 121.80831 | 2352 ft | 179 kts | 167° |
| 2026-05-04 03:42 | 31.08702 | 121.81223 | 2788 ft | 180 kts | 167° |
| 2026-05-04 03:43 | 31.07492 | 121.81615 | 3207 ft | 183 kts | 166° |
| 2026-05-04 03:43 | 31.06225 | 121.82031 | 3471 ft | 195 kts | 167° |
| 2026-05-04 03:43 | 31.04873 | 121.82475 | 3755 ft | 208 kts | 166° |
| 2026-05-04 03:43 | 31.03429 | 121.82951 | 4038 ft | 223 kts | 166° |
| 2026-05-04 03:44 | 31.01868 | 121.83387 | 4332 ft | 237 kts | 180° |
| 2026-05-04 03:44 | 31.00249 | 121.83059 | 4696 ft | 243 kts | 211° |
| 2026-05-04 03:44 | 30.98953 | 121.81799 | 5118 ft | 247 kts | 240° |
| 2026-05-04 03:44 | 30.98291 | 121.79959 | 5565 ft | 253 kts | 257° |
| 2026-05-04 03:45 | 30.97783 | 121.77957 | 5833 ft | 263 kts | 257° |
| 2026-05-04 03:45 | 30.97250 | 121.75903 | 5873 ft | 264 kts | 256° |
| 2026-05-04 03:45 | 30.96703 | 121.73862 | 5881 ft | 263 kts | 257° |
| 2026-05-04 03:45 | 30.96386 | 121.71784 | 5879 ft | 258 kts | 272° |
| 2026-05-04 03:46 | 30.96568 | 121.69725 | 6023 ft | 260 kts | 283° |
| 2026-05-04 03:46 | 30.96951 | 121.67652 | 6667 ft | 262 kts | 285° |
| 2026-05-04 03:46 | 30.97343 | 121.65588 | 7452 ft | 262 kts | 285° |
| 2026-05-04 03:46 | 30.97730 | 121.63536 | 8141 ft | 264 kts | 286° |
| 2026-05-04 03:47 | 30.98122 | 121.61443 | 8781 ft | 267 kts | 286° |
| 2026-05-04 03:47 | 30.98513 | 121.59331 | 9407 ft | 269 kts | 286° |
| 2026-05-04 03:47 | 30.98910 | 121.57193 | 10058 ft | 272 kts | 286° |
| 2026-05-04 03:47 | 30.99310 | 121.55034 | 10638 ft | 277 kts | 285° |
| 2026-05-04 03:48 | 30.99726 | 121.52797 | 10947 ft | 292 kts | 285° |
| 2026-05-04 03:48 | 31.00166 | 121.50410 | 11222 ft | 307 kts | 284° |
| 2026-05-04 03:48 | 31.00621 | 121.47933 | 11472 ft | 321 kts | 284° |
| 2026-05-04 03:48 | 31.01097 | 121.45348 | 11748 ft | 335 kts | 284° |
| 2026-05-04 03:49 | 31.01601 | 121.42635 | 12080 ft | 347 kts | 284° |
| 2026-05-04 03:49 | 31.02104 | 121.39905 | 12636 ft | 351 kts | 284° |
| 2026-05-04 03:49 | 31.02616 | 121.37119 | 13216 ft | 354 kts | 283° |
| 2026-05-04 03:49 | 31.03131 | 121.34304 | 13744 ft | 357 kts | 283° |
| 2026-05-04 03:50 | 31.03643 | 121.31476 | 14310 ft | 360 kts | 283° |
| 2026-05-04 03:50 | 31.04161 | 121.28615 | 14862 ft | 363 kts | 282° |
| 2026-05-04 03:50 | 31.04686 | 121.25715 | 15417 ft | 366 kts | 282° |
| 2026-05-04 03:50 | 31.05215 | 121.22805 | 15968 ft | 368 kts | 282° |
| 2026-05-04 03:51 | 31.05742 | 121.19915 | 16516 ft | 370 kts | 283° |
| 2026-05-04 03:51 | 31.06620 | 121.17071 | 16960 ft | 374 kts | 300° |
| 2026-05-04 03:51 | 31.08242 | 121.14726 | 17516 ft | 377 kts | 316° |
| 2026-05-04 03:51 | 31.10434 | 121.13063 | 18024 ft | 383 kts | 334° |
| 2026-05-04 03:52 | 31.13039 | 121.12276 | 18448 ft | 394 kts | 351° |
| 2026-05-04 03:52 | 31.15795 | 121.12096 | 18900 ft | 398 kts | 353° |
| 2026-05-04 03:52 | 31.18573 | 121.11951 | 19274 ft | 403 kts | 353° |
| 2026-05-04 03:52 | 31.21398 | 121.11803 | 19655 ft | 408 kts | 352° |
| 2026-05-04 03:53 | 31.24261 | 121.11646 | 20026 ft | 412 kts | 352° |
| 2026-05-04 03:53 | 31.27095 | 121.11488 | 20474 ft | 414 kts | 351° |
| 2026-05-04 03:53 | 31.30013 | 121.11321 | 20904 ft | 417 kts | 351° |
| 2026-05-04 03:53 | 31.32898 | 121.11156 | 21286 ft | 421 kts | 352° |
| 2026-05-04 03:54 | 31.35877 | 121.11112 | 21661 ft | 427 kts | 354° |
| 2026-05-04 03:54 | 31.38841 | 121.11250 | 22037 ft | 432 kts | 356° |
| 2026-05-04 03:54 | 31.41837 | 121.11414 | 22381 ft | 433 kts | 353° |
| 2026-05-04 03:54 | 31.44833 | 121.11121 | 22718 ft | 428 kts | 342° |
| 2026-05-04 03:55 | 31.47689 | 121.10253 | 23099 ft | 420 kts | 332° |
| 2026-05-04 03:55 | 31.50371 | 121.08951 | 23489 ft | 418 kts | 328° |
| 2026-05-04 03:55 | 31.53046 | 121.07524 | 23828 ft | 421 kts | 327° |
| 2026-05-04 03:55 | 31.55705 | 121.06084 | 24155 ft | 425 kts | 327° |
| 2026-05-04 03:56 | 31.58375 | 121.04642 | 24520 ft | 427 kts | 327° |
| 2026-05-04 03:56 | 31.61106 | 121.03175 | 24819 ft | 431 kts | 327° |
| 2026-05-04 03:56 | 31.63849 | 121.01704 | 25106 ft | 434 kts | 327° |
| 2026-05-04 03:56 | 31.66596 | 121.00236 | 25421 ft | 436 kts | 327° |
| 2026-05-04 03:57 | 31.69374 | 120.98753 | 25744 ft | 438 kts | 327° |
| 2026-05-04 03:57 | 31.72162 | 120.97263 | 26067 ft | 440 kts | 327° |
| 2026-05-04 03:57 | 31.74943 | 120.95778 | 26352 ft | 442 kts | 326° |
| 2026-05-04 03:57 | 31.77738 | 120.94285 | 26660 ft | 443 kts | 326° |
| 2026-05-04 03:58 | 31.83387 | 120.91258 | 27197 ft | 447 kts | 326° |
| 2026-05-04 03:58 | 31.86209 | 120.89746 | 27498 ft | 448 kts | 326° |
| 2026-05-04 03:58 | 31.89044 | 120.88225 | 27760 ft | 450 kts | 326° |
| 2026-05-04 03:59 | 31.91905 | 120.86689 | 28005 ft | 452 kts | 326° |
| 2026-05-04 03:59 | 31.94778 | 120.85147 | 28245 ft | 454 kts | 325° |
| 2026-05-04 03:59 | 31.97641 | 120.83610 | 28487 ft | 455 kts | 325° |
| 2026-05-04 03:59 | 32.00523 | 120.82062 | 28740 ft | 456 kts | 325° |
| 2026-05-04 04:00 | 32.03433 | 120.80496 | 28988 ft | 457 kts | 325° |
| 2026-05-04 04:00 | 32.06323 | 120.78939 | 29203 ft | 459 kts | 324° |
| 2026-05-04 04:00 | 32.09223 | 120.77366 | 29407 ft | 458 kts | 322° |
| 2026-05-04 04:00 | 32.11883 | 120.75416 | 29615 ft | 441 kts | 310° |
| 2026-05-04 04:01 | 32.14037 | 120.72965 | 29911 ft | 424 kts | 300° |
| 2026-05-04 04:01 | 32.15680 | 120.70169 | 30087 ft | 413 kts | 290° |
| 2026-05-04 04:01 | 32.17442 | 120.63895 | 30308 ft | 400 kts | 272° |
| 2026-05-04 04:02 | 32.17747 | 120.60654 | 30439 ft | 400 kts | 271° |
| 2026-05-04 04:02 | 32.18036 | 120.57373 | 30606 ft | 401 kts | 271° |
| 2026-05-04 04:02 | 32.18313 | 120.54125 | 30811 ft | 402 kts | 271° |
| 2026-05-04 04:02 | 32.18589 | 120.50880 | 31059 ft | 401 kts | 271° |
| 2026-05-04 04:03 | 32.18861 | 120.47610 | 31296 ft | 400 kts | 271° |
| 2026-05-04 04:03 | 32.19133 | 120.44326 | 31538 ft | 399 kts | 270° |
| 2026-05-04 04:03 | 32.19397 | 120.41120 | 31765 ft | 399 kts | 270° |
| 2026-05-04 04:03 | 32.19663 | 120.37837 | 31968 ft | 398 kts | 270° |
| 2026-05-04 04:04 | 32.19924 | 120.34591 | 32177 ft | 398 kts | 270° |
| 2026-05-04 04:04 | 32.20186 | 120.31384 | 32418 ft | 397 kts | 270° |
| 2026-05-04 04:04 | 32.20449 | 120.28124 | 32671 ft | 396 kts | 270° |
| 2026-05-04 04:04 | 32.20718 | 120.24899 | 32920 ft | 395 kts | 270° |
| 2026-05-04 04:05 | 32.20985 | 120.21703 | 33142 ft | 395 kts | 270° |
| 2026-05-04 04:05 | 32.21249 | 120.18487 | 33332 ft | 395 kts | 270° |
| 2026-05-04 04:05 | 32.21513 | 120.15264 | 33516 ft | 395 kts | 270° |
| 2026-05-04 04:05 | 32.21774 | 120.12064 | 33696 ft | 394 kts | 270° |
| 2026-05-04 04:06 | 32.22034 | 120.08833 | 33866 ft | 394 kts | 270° |
| 2026-05-04 04:06 | 32.22286 | 120.05647 | 34035 ft | 394 kts | 270° |
| 2026-05-04 04:06 | 32.22541 | 120.02441 | 34202 ft | 393 kts | 270° |
| 2026-05-04 04:06 | 32.22795 | 119.99239 | 34389 ft | 392 kts | 270° |
| 2026-05-04 04:07 | 32.23049 | 119.96028 | 34543 ft | 392 kts | 270° |
| 2026-05-04 04:07 | 32.23302 | 119.92844 | 34640 ft | 393 kts | 270° |
| 2026-05-04 04:07 | 32.23557 | 119.89623 | 34754 ft | 393 kts | 271° |
| 2026-05-04 04:07 | 32.23975 | 119.86436 | 34830 ft | 399 kts | 276° |
| 2026-05-04 04:08 | 32.25755 | 119.80159 | 35047 ft | 409 kts | 287° |
| 2026-05-04 04:08 | 32.27094 | 119.77168 | 35153 ft | 416 kts | 293° |
| 2026-05-04 04:08 | 32.28719 | 119.74353 | 35239 ft | 424 kts | 298° |
| 2026-05-04 04:09 | 32.32917 | 119.69270 | 35415 ft | 442 kts | 311° |
| 2026-05-04 04:09 | 32.35356 | 119.67077 | 35534 ft | 444 kts | 313° |
| 2026-05-04 04:09 | 32.37868 | 119.64892 | 35648 ft | 444 kts | 314° |
| 2026-05-04 04:10 | 32.42853 | 119.60622 | 35764 ft | 446 kts | 314° |
| 2026-05-04 04:10 | 32.47884 | 119.56329 | 35872 ft | 447 kts | 314° |
| 2026-05-04 04:11 | 32.52932 | 119.51989 | 36035 ft | 446 kts | 314° |
| 2026-05-04 04:11 | 32.57950 | 119.47654 | 36127 ft | 447 kts | 314° |
| 2026-05-04 04:12 | 32.62957 | 119.43319 | 36184 ft | 447 kts | 314° |
| 2026-05-04 04:12 | 32.67987 | 119.38955 | 36196 ft | 448 kts | 314° |
| 2026-05-04 04:13 | 32.73041 | 119.34564 | 36195 ft | 448 kts | 314° |
| 2026-05-04 04:13 | 32.78046 | 119.30186 | 36198 ft | 447 kts | 314° |
| 2026-05-04 04:14 | 32.83049 | 119.25810 | 36194 ft | 448 kts | 314° |
| 2026-05-04 04:14 | 32.88067 | 119.21429 | 36196 ft | 447 kts | 314° |
| 2026-05-04 04:15 | 32.93081 | 119.17046 | 36199 ft | 448 kts | 314° |
| 2026-05-04 04:15 | 32.98116 | 119.12688 | 36192 ft | 449 kts | 315° |
| 2026-05-04 04:16 | 33.03183 | 119.08334 | 36191 ft | 449 kts | 315° |
| 2026-05-04 04:16 | 33.08241 | 119.03977 | 36190 ft | 449 kts | 315° |
| 2026-05-04 04:17 | 33.13315 | 118.99602 | 36181 ft | 452 kts | 315° |
| 2026-05-04 04:17 | 33.18399 | 118.95221 | 36179 ft | 451 kts | 315° |
| 2026-05-04 04:18 | 33.23452 | 118.90828 | 36181 ft | 449 kts | 315° |
| 2026-05-04 04:18 | 33.28524 | 118.86392 | 36175 ft | 450 kts | 315° |
| 2026-05-04 04:19 | 33.33579 | 118.82003 | 36175 ft | 450 kts | 316° |
| 2026-05-04 04:19 | 33.38647 | 118.77618 | 36179 ft | 452 kts | 316° |
| 2026-05-04 04:20 | 33.43727 | 118.73206 | 36167 ft | 452 kts | 316° |
| 2026-05-04 04:20 | 33.48809 | 118.68796 | 36129 ft | 452 kts | 317° |
| 2026-05-04 04:21 | 33.53919 | 118.64381 | 36176 ft | 454 kts | 317° |
| 2026-05-04 04:21 | 33.59021 | 118.59962 | 36171 ft | 454 kts | 317° |
| 2026-05-04 04:22 | 33.64143 | 118.55509 | 36168 ft | 454 kts | 317° |
| 2026-05-04 04:22 | 33.69236 | 118.51076 | 36173 ft | 453 kts | 317° |
| 2026-05-04 04:23 | 33.74347 | 118.46616 | 36163 ft | 455 kts | 317° |
| 2026-05-04 04:23 | 33.79448 | 118.42156 | 36159 ft | 455 kts | 318° |
| 2026-05-04 04:24 | 33.84582 | 118.37663 | 36167 ft | 456 kts | 318° |
| 2026-05-04 04:24 | 33.89698 | 118.33167 | 36164 ft | 457 kts | 317° |
| 2026-05-04 04:25 | 33.94812 | 118.28649 | 36162 ft | 456 kts | 318° |
| 2026-05-04 04:25 | 33.99940 | 118.24158 | 36163 ft | 457 kts | 318° |
| 2026-05-04 04:26 | 34.05087 | 118.19682 | 36171 ft | 456 kts | 318° |
| 2026-05-04 04:26 | 34.10228 | 118.15203 | 36165 ft | 455 kts | 319° |
| 2026-05-04 04:27 | 34.15369 | 118.10749 | 36170 ft | 455 kts | 319° |
| 2026-05-04 04:27 | 34.20496 | 118.06338 | 36167 ft | 457 kts | 321° |
| 2026-05-04 04:28 | 34.25970 | 118.02339 | 36167 ft | 461 kts | 326° |
| 2026-05-04 04:28 | 34.31792 | 117.98965 | 36162 ft | 467 kts | 332° |
| 2026-05-04 04:29 | 34.37923 | 117.96275 | 36174 ft | 470 kts | 337° |
| 2026-05-04 04:29 | 34.44176 | 117.94009 | 36171 ft | 471 kts | 338° |
| 2026-05-04 04:30 | 34.50435 | 117.91779 | 36168 ft | 471 kts | 338° |
| 2026-05-04 04:30 | 34.56744 | 117.89526 | 36177 ft | 470 kts | 338° |
| 2026-05-04 04:31 | 34.62998 | 117.87282 | 36172 ft | 470 kts | 338° |
| 2026-05-04 04:31 | 34.69262 | 117.85029 | 36183 ft | 470 kts | 338° |
| 2026-05-04 04:32 | 34.75487 | 117.82787 | 36169 ft | 469 kts | 338° |
| 2026-05-04 04:32 | 34.81761 | 117.80524 | 36175 ft | 469 kts | 339° |
| 2026-05-04 04:33 | 34.88022 | 117.78236 | 36175 ft | 469 kts | 339° |
| 2026-05-04 04:33 | 34.94257 | 117.75958 | 36187 ft | 469 kts | 339° |
| 2026-05-04 04:34 | 35.00466 | 117.73681 | 36175 ft | 468 kts | 339° |
| 2026-05-04 04:34 | 35.06713 | 117.71389 | 36174 ft | 468 kts | 339° |
| 2026-05-04 04:35 | 35.12985 | 117.69101 | 36185 ft | 467 kts | 339° |
| 2026-05-04 04:35 | 35.19184 | 117.66847 | 36175 ft | 467 kts | 339° |
| 2026-05-04 04:36 | 35.25379 | 117.64577 | 36186 ft | 466 kts | 339° |
| 2026-05-04 04:36 | 35.31579 | 117.62296 | 36188 ft | 466 kts | 339° |
| 2026-05-04 04:37 | 35.43975 | 117.57720 | 36177 ft | 465 kts | 339° |
| 2026-05-04 04:38 | 35.50182 | 117.55421 | 36176 ft | 465 kts | 339° |
| 2026-05-04 04:38 | 35.56343 | 117.53136 | 36163 ft | 464 kts | 339° |
| 2026-05-04 04:39 | 35.62523 | 117.50839 | 36170 ft | 464 kts | 340° |
| 2026-05-04 04:39 | 35.68705 | 117.48540 | 36170 ft | 464 kts | 339° |
| 2026-05-04 04:40 | 35.74863 | 117.46243 | 36169 ft | 463 kts | 340° |
| 2026-05-04 04:40 | 35.81015 | 117.43944 | 36163 ft | 463 kts | 340° |
| 2026-05-04 04:41 | 35.87154 | 117.41645 | 36171 ft | 463 kts | 340° |
| 2026-05-04 04:41 | 35.93312 | 117.39333 | 36158 ft | 462 kts | 340° |
| 2026-05-04 04:42 | 35.99466 | 117.37020 | 36166 ft | 463 kts | 340° |
| 2026-05-04 04:42 | 36.05644 | 117.34740 | 36158 ft | 462 kts | 340° |
| 2026-05-04 04:43 | 36.11773 | 117.32459 | 36164 ft | 462 kts | 340° |
| 2026-05-04 04:43 | 36.17922 | 117.30182 | 36150 ft | 461 kts | 340° |
| 2026-05-04 04:44 | 36.24058 | 117.27907 | 36143 ft | 460 kts | 340° |
| 2026-05-04 04:44 | 36.30180 | 117.25630 | 36144 ft | 459 kts | 340° |
| 2026-05-04 04:45 | 36.36266 | 117.23364 | 36158 ft | 458 kts | 340° |
| 2026-05-04 04:47 | 36.56913 | 117.13468 | 36149 ft | 453 kts | 334° |
| 2026-05-04 04:47 | 36.62694 | 117.10452 | 36137 ft | 453 kts | 334° |
| 2026-05-04 04:48 | 36.68482 | 117.07430 | 36137 ft | 451 kts | 334° |
| 2026-05-04 04:49 | 36.82949 | 116.99853 | 36116 ft | 450 kts | 335° |
| 2026-05-04 04:49 | 36.88715 | 116.96825 | 36119 ft | 450 kts | 335° |
| 2026-05-04 04:50 | 36.94458 | 116.93805 | 36116 ft | 450 kts | 335° |
| 2026-05-04 04:50 | 37.00227 | 116.90764 | 36125 ft | 449 kts | 335° |
| 2026-05-04 04:51 | 37.05943 | 116.87747 | 36120 ft | 448 kts | 335° |
| 2026-05-04 04:51 | 37.11700 | 116.84703 | 36118 ft | 448 kts | 335° |
| 2026-05-04 04:52 | 37.17442 | 116.81675 | 36102 ft | 448 kts | 335° |
| 2026-05-04 04:52 | 37.23256 | 116.78888 | 36099 ft | 450 kts | 339° |
| 2026-05-04 04:53 | 37.29272 | 116.76573 | 36084 ft | 451 kts | 341° |
| 2026-05-04 04:53 | 37.35268 | 116.74313 | 36085 ft | 451 kts | 341° |
| 2026-05-04 04:54 | 37.41266 | 116.72048 | 36090 ft | 450 kts | 341° |
| 2026-05-04 04:54 | 37.47239 | 116.69785 | 36092 ft | 450 kts | 341° |
| 2026-05-04 04:55 | 37.53238 | 116.67507 | 36081 ft | 450 kts | 340° |
| 2026-05-04 04:55 | 37.59226 | 116.65228 | 36081 ft | 450 kts | 341° |
| 2026-05-04 04:56 | 37.65179 | 116.62957 | 36091 ft | 449 kts | 340° |
| 2026-05-04 04:56 | 37.71176 | 116.60665 | 36079 ft | 449 kts | 341° |
| 2026-05-04 04:57 | 37.77152 | 116.58376 | 36078 ft | 449 kts | 341° |
| 2026-05-04 04:57 | 37.83107 | 116.56091 | 36068 ft | 449 kts | 341° |
| 2026-05-04 04:58 | 37.89053 | 116.53770 | 36065 ft | 448 kts | 339° |
| 2026-05-04 04:58 | 37.94840 | 116.50906 | 36062 ft | 446 kts | 334° |
| 2026-05-04 04:59 | 38.00363 | 116.47349 | 36050 ft | 444 kts | 328° |
| 2026-05-04 04:59 | 38.05557 | 116.43145 | 36047 ft | 443 kts | 324° |
| 2026-05-04 05:00 | 38.10563 | 116.38574 | 36049 ft | 443 kts | 323° |
| 2026-05-04 05:01 | 38.18093 | 116.31810 | 36047 ft | 444 kts | 328° |
| 2026-05-04 05:01 | 38.23727 | 116.28672 | 36048 ft | 447 kts | 341° |
| 2026-05-04 05:02 | 38.29900 | 116.27339 | 36051 ft | 452 kts | 354° |
| 2026-05-04 05:02 | 38.36161 | 116.27973 | 36063 ft | 459 kts | 8° |
| 2026-05-04 05:03 | 38.42394 | 116.29992 | 36058 ft | 462 kts | 11° |
| 2026-05-04 05:04 | 38.54740 | 116.34283 | 36061 ft | 461 kts | 11° |
| 2026-05-04 05:04 | 38.60951 | 116.36440 | 36056 ft | 460 kts | 11° |
| 2026-05-04 05:06 | 38.85567 | 116.45081 | 36045 ft | 460 kts | 11° |
| 2026-05-04 05:07 | 38.91753 | 116.47267 | 36045 ft | 459 kts | 11° |
| 2026-05-04 05:07 | 38.97871 | 116.49432 | 36041 ft | 459 kts | 11° |
| 2026-05-04 05:09 | 39.25445 | 116.59840 | 36038 ft | 461 kts | 15° |
| 2026-05-04 05:10 | 39.31466 | 116.62645 | 36041 ft | 461 kts | 15° |
| 2026-05-04 05:10 | 39.37528 | 116.65475 | 36041 ft | 461 kts | 16° |
| 2026-05-04 05:11 | 39.43539 | 116.68312 | 36049 ft | 461 kts | 17° |
| 2026-05-04 05:11 | 39.49539 | 116.71133 | 36038 ft | 461 kts | 16° |
| 2026-05-04 05:12 | 39.55574 | 116.73961 | 36034 ft | 461 kts | 16° |
| 2026-05-04 05:12 | 39.61572 | 116.76771 | 36035 ft | 461 kts | 17° |
| 2026-05-04 05:13 | 39.67624 | 116.79614 | 36029 ft | 461 kts | 17° |
| 2026-05-04 05:13 | 39.73695 | 116.82148 | 36021 ft | 458 kts | 11° |
| 2026-05-04 05:14 | 39.79904 | 116.83573 | 36024 ft | 454 kts | 3° |
| 2026-05-04 05:14 | 39.86237 | 116.83837 | 36027 ft | 452 kts | 355° |
| 2026-05-04 05:15 | 39.92468 | 116.82987 | 36023 ft | 451 kts | 350° |
| 2026-05-04 05:15 | 39.98650 | 116.81754 | 36003 ft | 451 kts | 349° |
| 2026-05-04 05:16 | 40.04857 | 116.80498 | 36015 ft | 451 kts | 349° |
| 2026-05-04 05:16 | 40.11050 | 116.79249 | 36013 ft | 451 kts | 349° |
| 2026-05-04 05:17 | 40.17235 | 116.78009 | 36016 ft | 451 kts | 350° |
| 2026-05-04 05:17 | 40.23434 | 116.76759 | 36008 ft | 450 kts | 350° |
| 2026-05-04 05:18 | 40.29586 | 116.75501 | 36005 ft | 451 kts | 349° |
| 2026-05-04 05:18 | 40.35683 | 116.73719 | 36005 ft | 449 kts | 343° |
| 2026-05-04 05:19 | 40.41676 | 116.71367 | 36010 ft | 449 kts | 342° |
| 2026-05-04 05:19 | 40.47618 | 116.68954 | 36027 ft | 449 kts | 342° |
| 2026-05-04 05:20 | 40.53580 | 116.66532 | 36047 ft | 449 kts | 342° |
| 2026-05-04 05:20 | 40.59555 | 116.64101 | 36045 ft | 449 kts | 342° |
| 2026-05-04 05:21 | 40.65493 | 116.61679 | 36040 ft | 449 kts | 342° |
| 2026-05-04 05:21 | 40.71458 | 116.59255 | 36044 ft | 449 kts | 343° |
| 2026-05-04 05:22 | 40.77554 | 116.57310 | 36040 ft | 450 kts | 348° |
| 2026-05-04 05:22 | 40.83721 | 116.56156 | 36045 ft | 451 kts | 353° |
| 2026-05-04 05:23 | 40.89991 | 116.55524 | 36045 ft | 451 kts | 354° |
| 2026-05-04 05:23 | 40.96258 | 116.54945 | 36052 ft | 452 kts | 354° |
| 2026-05-04 05:24 | 41.02519 | 116.54360 | 36050 ft | 452 kts | 354° |
| 2026-05-04 05:24 | 41.08760 | 116.53774 | 36045 ft | 452 kts | 354° |
| 2026-05-04 05:25 | 41.15030 | 116.53127 | 36039 ft | 451 kts | 352° |
| 2026-05-04 05:25 | 41.21184 | 116.51656 | 36037 ft | 450 kts | 345° |
| 2026-05-04 05:26 | 41.27095 | 116.49150 | 36032 ft | 448 kts | 338° |
| 2026-05-04 05:26 | 41.32718 | 116.45635 | 36040 ft | 447 kts | 331° |
| 2026-05-04 05:28 | 41.54051 | 116.28740 | 36067 ft | 447 kts | 329° |
| 2026-05-04 05:29 | 41.59383 | 116.24479 | 36072 ft | 447 kts | 329° |
| 2026-05-04 05:29 | 41.64695 | 116.20235 | 36076 ft | 446 kts | 329° |
| 2026-05-04 05:31 | 41.85984 | 116.03155 | 36089 ft | 446 kts | 328° |
| 2026-05-04 05:32 | 41.91273 | 115.98888 | 36086 ft | 446 kts | 329° |
| 2026-05-04 05:33 | 41.99091 | 115.92220 | 36091 ft | 445 kts | 326° |
| 2026-05-04 05:33 | 42.04198 | 115.87500 | 36083 ft | 445 kts | 325° |
| 2026-05-04 05:34 | 42.09269 | 115.82795 | 36068 ft | 445 kts | 325° |
| 2026-05-04 05:34 | 42.14375 | 115.78071 | 36065 ft | 446 kts | 325° |
| 2026-05-04 05:35 | 42.19483 | 115.73332 | 36055 ft | 445 kts | 325° |
| 2026-05-04 05:35 | 42.24579 | 115.68578 | 36053 ft | 446 kts | 325° |
| 2026-05-04 05:36 | 42.29661 | 115.63845 | 36048 ft | 446 kts | 325° |
| 2026-05-04 05:36 | 42.34745 | 115.59107 | 36041 ft | 445 kts | 325° |
| 2026-05-04 05:37 | 42.39815 | 115.54364 | 36038 ft | 445 kts | 325° |
| 2026-05-04 05:37 | 42.44907 | 115.49586 | 36032 ft | 445 kts | 325° |
| 2026-05-04 05:38 | 42.52523 | 115.42419 | 36027 ft | 446 kts | 325° |
| 2026-05-04 05:38 | 42.57600 | 115.37630 | 36028 ft | 446 kts | 325° |
| 2026-05-04 05:39 | 42.65201 | 115.30415 | 36021 ft | 445 kts | 324° |
| 2026-05-04 05:40 | 42.72812 | 115.23167 | 36020 ft | 445 kts | 324° |
| 2026-05-04 05:40 | 42.77840 | 115.18380 | 36009 ft | 444 kts | 324° |
| 2026-05-04 05:41 | 42.82926 | 115.13531 | 36006 ft | 445 kts | 324° |
| 2026-05-04 05:41 | 42.87968 | 115.08715 | 36000 ft | 446 kts | 324° |
| 2026-05-04 05:42 | 42.93020 | 115.03879 | 35994 ft | 446 kts | 324° |
| 2026-05-04 05:42 | 42.98103 | 114.99004 | 35986 ft | 446 kts | 324° |
| 2026-05-04 05:43 | 43.03170 | 114.94134 | 35984 ft | 446 kts | 324° |
| 2026-05-04 05:45 | 43.23546 | 114.74899 | 35950 ft | 446 kts | 325° |
| 2026-05-04 05:47 | 43.43908 | 114.55746 | 35943 ft | 445 kts | 325° |
| 2026-05-04 05:47 | 43.49015 | 114.50911 | 35942 ft | 445 kts | 325° |
| 2026-05-04 05:48 | 43.54071 | 114.46117 | 35935 ft | 444 kts | 325° |
| 2026-05-04 05:48 | 43.59166 | 114.41276 | 35934 ft | 445 kts | 325° |
| 2026-05-04 05:49 | 43.64249 | 114.36437 | 35929 ft | 444 kts | 325° |
| 2026-05-04 05:49 | 43.69292 | 114.31608 | 35928 ft | 444 kts | 324° |
| 2026-05-04 05:51 | 43.89496 | 114.12183 | 35918 ft | 444 kts | 324° |
| 2026-05-04 05:52 | 43.94566 | 114.07291 | 35921 ft | 444 kts | 324° |
| 2026-05-04 05:52 | 43.99640 | 114.02387 | 35918 ft | 444 kts | 324° |
| 2026-05-04 05:54 | 44.19764 | 113.82883 | 35911 ft | 442 kts | 324° |
| 2026-05-04 05:55 | 44.24802 | 113.77969 | 35904 ft | 442 kts | 324° |
| 2026-05-04 05:55 | 44.29797 | 113.73083 | 35907 ft | 441 kts | 324° |
| 2026-05-04 05:56 | 44.34816 | 113.68160 | 35912 ft | 441 kts | 324° |
| 2026-05-04 05:56 | 44.39792 | 113.63268 | 35913 ft | 440 kts | 324° |
| 2026-05-04 05:57 | 44.44797 | 113.58337 | 35914 ft | 440 kts | 324° |
| 2026-05-04 05:57 | 44.49787 | 113.53410 | 35918 ft | 440 kts | 324° |
| 2026-05-04 05:58 | 44.54774 | 113.48473 | 35918 ft | 439 kts | 324° |
| 2026-05-04 05:58 | 44.59735 | 113.43550 | 35917 ft | 439 kts | 324° |
| 2026-05-04 05:59 | 44.64694 | 113.38615 | 35919 ft | 439 kts | 324° |
| 2026-05-04 05:59 | 44.69672 | 113.33652 | 35924 ft | 439 kts | 323° |
| 2026-05-04 06:00 | 44.74466 | 113.28422 | 35917 ft | 439 kts | 319° |
| 2026-05-04 06:00 | 44.78911 | 113.22546 | 35921 ft | 439 kts | 314° |
| 2026-05-04 06:01 | 44.82939 | 113.16097 | 35919 ft | 439 kts | 309° |
| 2026-05-04 06:03 | 44.97436 | 112.88633 | 35907 ft | 437 kts | 307° |
| 2026-05-04 06:05 | 45.13553 | 112.57678 | 35893 ft | 435 kts | 307° |
| 2026-05-04 06:06 | 45.17144 | 112.50771 | 35891 ft | 435 kts | 307° |
| 2026-05-04 06:06 | 45.20683 | 112.43921 | 35892 ft | 434 kts | 307° |
| 2026-05-04 06:07 | 45.24238 | 112.37015 | 35888 ft | 433 kts | 307° |
| 2026-05-04 06:07 | 45.27771 | 112.30108 | 35881 ft | 432 kts | 307° |
| 2026-05-04 06:08 | 45.31284 | 112.23215 | 35873 ft | 431 kts | 307° |
| 2026-05-04 06:08 | 45.34782 | 112.16349 | 35861 ft | 432 kts | 307° |
| 2026-05-04 06:09 | 45.38284 | 112.09467 | 35848 ft | 432 kts | 307° |
| 2026-05-04 06:11 | 45.52240 | 111.81885 | 35835 ft | 429 kts | 307° |
| 2026-05-04 06:13 | 45.66082 | 111.54259 | 35850 ft | 428 kts | 307° |
| 2026-05-04 06:14 | 45.78093 | 111.30054 | 35840 ft | 426 kts | 306° |
| 2026-05-04 06:15 | 45.81475 | 111.23176 | 35840 ft | 426 kts | 306° |
| 2026-05-04 06:15 | 45.84892 | 111.16227 | 35840 ft | 425 kts | 306° |
| 2026-05-04 06:16 | 45.88281 | 111.09329 | 35856 ft | 425 kts | 306° |
| 2026-05-04 06:16 | 45.91675 | 111.02403 | 35866 ft | 425 kts | 306° |
| 2026-05-04 06:17 | 45.95055 | 110.95488 | 35877 ft | 425 kts | 306° |
| 2026-05-04 06:17 | 45.98430 | 110.88569 | 35878 ft | 425 kts | 306° |
| 2026-05-04 06:18 | 46.01812 | 110.81619 | 35870 ft | 424 kts | 306° |
| 2026-05-04 06:20 | 46.15266 | 110.53877 | 35836 ft | 423 kts | 306° |
| 2026-05-04 06:21 | 46.23616 | 110.36516 | 35834 ft | 421 kts | 306° |
| 2026-05-04 06:22 | 46.26917 | 110.29591 | 35836 ft | 421 kts | 305° |
| 2026-05-04 06:25 | 46.49928 | 109.80892 | 35855 ft | 419 kts | 305° |
| 2026-05-04 06:26 | 46.53204 | 109.73895 | 35853 ft | 419 kts | 305° |
| 2026-05-04 06:26 | 46.56454 | 109.66938 | 35852 ft | 418 kts | 304° |
| 2026-05-04 06:27 | 46.64557 | 109.49509 | 35840 ft | 417 kts | 305° |
| 2026-05-04 06:28 | 46.67788 | 109.42537 | 35842 ft | 417 kts | 305° |
| 2026-05-04 06:28 | 46.71028 | 109.35517 | 35835 ft | 416 kts | 305° |
| 2026-05-04 06:29 | 46.74223 | 109.28561 | 35837 ft | 417 kts | 304° |
| 2026-05-04 06:29 | 46.77443 | 109.21530 | 35832 ft | 416 kts | 304° |
| 2026-05-04 06:30 | 46.80654 | 109.14518 | 35835 ft | 417 kts | 304° |
| 2026-05-04 06:30 | 46.83851 | 109.07519 | 35838 ft | 416 kts | 304° |
| 2026-05-04 06:31 | 46.87029 | 109.00553 | 35829 ft | 415 kts | 304° |
| 2026-05-04 06:31 | 46.90228 | 108.93524 | 35819 ft | 416 kts | 304° |
| 2026-05-04 06:33 | 47.02926 | 108.65447 | 35833 ft | 413 kts | 304° |
| 2026-05-04 06:34 | 47.06072 | 108.58470 | 35838 ft | 413 kts | 304° |
| 2026-05-04 06:34 | 47.09239 | 108.51444 | 35843 ft | 413 kts | 304° |
| 2026-05-04 06:36 | 47.21824 | 108.23377 | 35883 ft | 412 kts | 303° |
| 2026-05-04 06:37 | 47.24935 | 108.16368 | 35890 ft | 411 kts | 303° |
| 2026-05-04 06:37 | 47.28061 | 108.09314 | 35882 ft | 412 kts | 303° |
| 2026-05-04 06:38 | 47.31165 | 108.02288 | 35879 ft | 411 kts | 303° |
| 2026-05-04 06:40 | 47.43544 | 107.74128 | 35892 ft | 410 kts | 303° |
| 2026-05-04 06:40 | 47.46619 | 107.67109 | 35899 ft | 410 kts | 303° |
| 2026-05-04 06:41 | 47.49706 | 107.60052 | 35904 ft | 410 kts | 302° |
| 2026-05-04 06:41 | 47.52795 | 107.52953 | 35905 ft | 410 kts | 303° |
| 2026-05-04 06:42 | 47.55856 | 107.45908 | 35899 ft | 410 kts | 302° |
| 2026-05-04 06:44 | 47.68063 | 107.17574 | 35884 ft | 409 kts | 302° |
| 2026-05-04 06:44 | 47.71099 | 107.10458 | 35896 ft | 408 kts | 301° |
| 2026-05-04 06:45 | 47.74100 | 107.03383 | 35902 ft | 407 kts | 301° |
| 2026-05-04 06:45 | 47.77119 | 106.96260 | 35909 ft | 407 kts | 301° |
| 2026-05-04 06:46 | 47.80108 | 106.89185 | 35903 ft | 407 kts | 301° |
| 2026-05-04 06:46 | 47.83334 | 106.82295 | 35906 ft | 407 kts | 307° |
| 2026-05-04 06:48 | 47.99290 | 106.64505 | 35914 ft | 421 kts | 329° |
| 2026-05-04 06:48 | 48.01918 | 106.62637 | 35912 ft | 421 kts | 329° |
| 2026-05-04 06:50 | 48.23015 | 106.47716 | 35886 ft | 421 kts | 329° |
| 2026-05-04 06:51 | 48.28305 | 106.43951 | 35891 ft | 420 kts | 329° |
| 2026-05-04 06:51 | 48.33556 | 106.40203 | 35891 ft | 419 kts | 329° |
| 2026-05-04 06:52 | 48.38794 | 106.36456 | 35887 ft | 420 kts | 329° |
| 2026-05-04 06:52 | 48.44081 | 106.32651 | 35884 ft | 420 kts | 328° |
| 2026-05-04 06:53 | 48.49313 | 106.28863 | 35888 ft | 420 kts | 328° |
| 2026-05-04 06:53 | 48.54586 | 106.25053 | 35886 ft | 419 kts | 328° |
| 2026-05-04 06:54 | 48.59796 | 106.21280 | 35878 ft | 419 kts | 328° |
| 2026-05-04 06:54 | 48.65057 | 106.17467 | 35880 ft | 419 kts | 328° |
| 2026-05-04 06:55 | 48.70276 | 106.13679 | 35882 ft | 419 kts | 328° |
| 2026-05-04 06:55 | 48.75490 | 106.09885 | 35886 ft | 417 kts | 327° |
| 2026-05-04 06:57 | 48.96338 | 105.94627 | 35903 ft | 417 kts | 327° |
| 2026-05-04 06:58 | 49.01539 | 105.90798 | 35901 ft | 417 kts | 327° |
| 2026-05-04 06:58 | 49.06756 | 105.86948 | 35902 ft | 418 kts | 327° |
| 2026-05-04 06:59 | 49.11958 | 105.83105 | 35908 ft | 417 kts | 327° |
| 2026-05-04 06:59 | 49.17172 | 105.79267 | 35902 ft | 417 kts | 327° |
| 2026-05-04 07:01 | 49.38037 | 105.63734 | 35900 ft | 419 kts | 327° |
| 2026-05-04 07:02 | 49.43247 | 105.59825 | 35908 ft | 419 kts | 327° |
| 2026-05-04 07:02 | 49.48445 | 105.55914 | 35904 ft | 418 kts | 327° |
| 2026-05-04 07:03 | 49.53639 | 105.52003 | 35910 ft | 418 kts | 327° |
| 2026-05-04 07:03 | 49.58878 | 105.48045 | 35909 ft | 419 kts | 327° |
| 2026-05-04 07:04 | 49.64057 | 105.44124 | 35912 ft | 417 kts | 327° |
| 2026-05-04 07:04 | 49.69263 | 105.40173 | 35919 ft | 418 kts | 327° |
| 2026-05-04 07:05 | 49.74475 | 105.36206 | 35915 ft | 417 kts | 326° |
| 2026-05-04 07:05 | 49.79650 | 105.32244 | 35920 ft | 416 kts | 326° |
| 2026-05-04 07:06 | 49.87425 | 105.26267 | 35919 ft | 417 kts | 326° |
| 2026-05-04 07:07 | 49.92599 | 105.22292 | 35928 ft | 418 kts | 326° |
| 2026-05-04 07:09 | 50.13319 | 105.06310 | 35901 ft | 417 kts | 326° |
| 2026-05-04 07:09 | 50.18510 | 105.02301 | 35907 ft | 418 kts | 326° |
| 2026-05-04 07:10 | 50.23711 | 104.98254 | 35930 ft | 419 kts | 326° |
| 2026-05-04 07:12 | 50.41569 | 104.76889 | 35955 ft | 400 kts | 303° |
| 2026-05-04 07:12 | 50.44680 | 104.69744 | 35949 ft | 398 kts | 300° |
| 2026-05-04 07:13 | 50.47655 | 104.62495 | 35960 ft | 398 kts | 300° |
| 2026-05-04 07:13 | 50.50639 | 104.55146 | 35957 ft | 398 kts | 300° |
| 2026-05-04 07:14 | 50.58015 | 104.36883 | 35946 ft | 398 kts | 299° |
| 2026-05-04 07:15 | 50.60956 | 104.29522 | 35954 ft | 398 kts | 299° |
| 2026-05-04 07:15 | 50.63891 | 104.22186 | 35945 ft | 399 kts | 299° |
| 2026-05-04 07:16 | 50.66831 | 104.14811 | 35957 ft | 398 kts | 298° |
| 2026-05-04 07:16 | 50.69761 | 104.07448 | 35943 ft | 397 kts | 298° |
| 2026-05-04 07:17 | 50.72686 | 104.00069 | 35942 ft | 397 kts | 299° |
| 2026-05-04 07:17 | 50.75596 | 103.92706 | 35946 ft | 397 kts | 298° |
| 2026-05-04 07:18 | 50.78513 | 103.85323 | 35949 ft | 398 kts | 298° |
| 2026-05-04 07:18 | 50.81426 | 103.77914 | 35954 ft | 397 kts | 299° |
| 2026-05-04 07:19 | 50.84325 | 103.70521 | 35941 ft | 397 kts | 299° |
| 2026-05-04 07:19 | 50.87210 | 103.63146 | 35931 ft | 396 kts | 299° |
| 2026-05-04 07:20 | 50.88668 | 103.59422 | 36205 ft | 396 kts | 298° |
| 2026-05-04 07:20 | 50.90089 | 103.55770 | 35853 ft | 393 kts | 298° |
| 2026-05-04 07:20 | 50.92956 | 103.48371 | 35898 ft | 395 kts | 299° |
| 2026-05-04 07:22 | 51.04334 | 103.18797 | 35906 ft | 394 kts | 297° |
| 2026-05-04 07:23 | 51.07180 | 103.11359 | 35918 ft | 396 kts | 298° |
| 2026-05-04 07:23 | 51.10018 | 103.03918 | 36112 ft | 395 kts | 298° |
| 2026-05-04 07:24 | 51.11439 | 103.00209 | 35776 ft | 392 kts | 298° |
| 2026-05-04 07:24 | 51.12864 | 102.96500 | 36048 ft | 393 kts | 298° |
| 2026-05-04 07:24 | 51.15685 | 102.89124 | 35969 ft | 392 kts | 297° |
| 2026-05-04 07:26 | 51.26888 | 102.59402 | 35933 ft | 394 kts | 298° |
| 2026-05-04 07:27 | 51.29691 | 102.51920 | 35948 ft | 395 kts | 297° |
| 2026-05-04 07:27 | 51.32503 | 102.44385 | 35928 ft | 395 kts | 297° |
| 2026-05-04 07:28 | 51.35289 | 102.36886 | 35937 ft | 395 kts | 298° |
| 2026-05-04 07:28 | 51.38072 | 102.29366 | 35955 ft | 395 kts | 296° |
| 2026-05-04 07:29 | 51.40866 | 102.21782 | 35932 ft | 395 kts | 296° |
| 2026-05-04 07:29 | 51.43655 | 102.14209 | 35945 ft | 396 kts | 297° |
| 2026-05-04 07:30 | 51.46427 | 102.06670 | 35921 ft | 397 kts | 296° |
| 2026-05-04 07:30 | 51.49227 | 101.99025 | 35925 ft | 398 kts | 296° |
| 2026-05-04 07:31 | 51.52009 | 101.91409 | 35902 ft | 398 kts | 296° |
| 2026-05-04 07:33 | 51.63891 | 101.61362 | 35920 ft | 406 kts | 304° |
| 2026-05-04 07:33 | 51.67547 | 101.54492 | 35947 ft | 406 kts | 306° |
| 2026-05-04 07:34 | 51.71250 | 101.47627 | 35981 ft | 406 kts | 306° |
| 2026-05-04 07:34 | 51.74930 | 101.40797 | 35970 ft | 407 kts | 306° |
| 2026-05-04 07:35 | 51.78636 | 101.33901 | 35969 ft | 407 kts | 305° |
| 2026-05-04 07:35 | 51.82307 | 101.27029 | 35943 ft | 407 kts | 305° |
| 2026-05-04 07:36 | 51.85997 | 101.20122 | 35926 ft | 409 kts | 305° |